createdAt,value
2018-06-21T00:01:16.511Z,25.60
2018-06-21T00:03:44.587Z,25.60
2018-06-21T00:06:12.668Z,25.60
2018-06-21T00:08:40.740Z,25.60
2018-06-21T00:11:08.850Z,25.60
2018-06-21T00:13:36.982Z,25.60
2018-06-21T00:16:05.370Z,25.60
2018-06-21T00:18:33.462Z,25.60
2018-06-21T00:23:29.470Z,25.60
2018-06-21T00:25:57.572Z,25.60
2018-06-21T00:28:25.647Z,25.60
2018-06-21T00:30:53.718Z,25.60
2018-06-21T00:33:21.799Z,25.60
2018-06-21T00:35:49.883Z,25.60
2018-06-21T00:38:17.947Z,25.60
2018-06-21T00:40:46.315Z,25.60
2018-06-21T00:43:14.450Z,25.60
2018-06-21T00:48:10.406Z,25.60
2018-06-21T00:50:38.495Z,25.60
2018-06-21T00:53:06.562Z,25.60
2018-06-21T00:55:46.148Z,25.60
2018-06-21T00:58:14.226Z,25.60
2018-06-21T01:00:42.363Z,25.60
2018-06-21T01:03:10.435Z,25.60
2018-06-21T01:05:38.516Z,25.60
2018-06-21T01:08:06.695Z,25.60
2018-06-21T01:10:34.779Z,25.60
2018-06-21T01:13:02.855Z,25.60
2018-06-21T01:15:30.939Z,25.60
2018-06-21T01:17:59.015Z,25.60
2018-06-21T01:20:27.107Z,25.60
2018-06-21T01:22:55.483Z,25.60
2018-06-21T01:25:24.031Z,25.60
2018-06-21T01:27:52.102Z,25.60
2018-06-21T01:30:20.187Z,25.60
2018-06-21T01:32:48.271Z,25.60
2018-06-21T01:35:16.367Z,25.60
2018-06-21T01:37:44.444Z,25.60
2018-06-21T01:40:12.523Z,25.60
2018-06-21T01:42:40.591Z,25.50
2018-06-21T01:45:08.665Z,25.60
2018-06-21T01:47:36.743Z,25.50
2018-06-21T01:50:04.815Z,25.50
2018-06-21T01:52:32.891Z,25.60
2018-06-21T01:55:01.175Z,25.50
2018-06-21T01:57:29.259Z,25.60
2018-06-21T01:59:57.567Z,25.60
2018-06-21T02:02:25.646Z,25.60
2018-06-21T02:04:53.719Z,25.60
2018-06-21T02:07:21.910Z,25.60
2018-06-21T02:09:49.982Z,25.60
2018-06-21T02:12:18.068Z,25.50
2018-06-21T02:14:46.251Z,25.60
2018-06-21T02:17:14.323Z,25.60
2018-06-21T02:19:42.423Z,25.60
2018-06-21T02:22:10.519Z,25.60
2018-06-21T02:24:38.616Z,25.60
2018-06-21T02:27:06.710Z,25.60
2018-06-21T02:29:34.794Z,25.50
2018-06-21T02:32:02.888Z,25.60
2018-06-21T02:34:30.959Z,25.60
2018-06-21T02:36:59.046Z,25.50
2018-06-21T02:39:27.119Z,25.50
2018-06-21T02:41:55.203Z,25.60
2018-06-21T02:44:23.279Z,25.60
2018-06-21T02:46:51.423Z,25.60
2018-06-21T02:49:19.507Z,25.50
2018-06-21T02:51:47.589Z,25.50
2018-06-21T02:54:15.676Z,25.50
2018-06-21T02:56:43.751Z,25.50
2018-06-21T02:59:11.815Z,25.60
2018-06-21T03:01:39.884Z,25.50
2018-06-21T03:04:08.064Z,25.50
2018-06-21T03:06:36.140Z,25.60
2018-06-21T03:09:06.538Z,25.50
2018-06-21T03:11:34.623Z,25.60
2018-06-21T03:14:02.691Z,25.50
2018-06-21T03:16:31.088Z,25.50
2018-06-21T03:18:59.500Z,25.60
2018-06-21T03:21:27.575Z,25.60
2018-06-21T03:23:56.108Z,25.60
2018-06-21T03:26:24.459Z,25.60
2018-06-21T03:28:52.539Z,25.60
2018-06-21T03:31:20.603Z,25.60
2018-06-21T03:33:48.695Z,25.50
2018-06-21T03:36:16.764Z,25.50
2018-06-21T03:38:44.851Z,25.50
2018-06-21T03:41:12.908Z,25.50
2018-06-21T03:43:40.979Z,25.50
2018-06-21T03:46:09.047Z,25.50
2018-06-21T03:48:37.369Z,25.50
2018-06-21T03:51:05.549Z,25.50
2018-06-21T03:53:33.621Z,25.50
2018-06-21T03:56:01.790Z,25.50
2018-06-21T03:58:29.864Z,25.50
2018-06-21T04:00:57.932Z,25.50
2018-06-21T04:03:26.011Z,25.50
2018-06-21T04:05:54.087Z,25.50
2018-06-21T04:08:22.253Z,25.50
2018-06-21T04:10:50.719Z,25.50
2018-06-21T04:13:18.791Z,25.50
2018-06-21T04:15:46.876Z,25.50
2018-06-21T04:18:14.952Z,25.50
2018-06-21T04:20:43.314Z,25.50
2018-06-21T04:23:11.826Z,25.50
2018-06-21T04:25:39.899Z,25.50
2018-06-21T04:28:08.275Z,25.50
2018-06-21T04:30:36.341Z,25.50
2018-06-21T04:33:04.408Z,25.50
2018-06-21T04:35:32.475Z,25.50
2018-06-21T04:38:00.565Z,25.50
2018-06-21T04:40:28.646Z,25.50
2018-06-21T04:42:56.727Z,25.50
2018-06-21T04:45:24.808Z,25.50
2018-06-21T04:47:52.903Z,25.50
2018-06-21T04:50:21.271Z,25.50
2018-06-21T04:52:49.468Z,25.50
2018-06-21T04:55:17.560Z,25.50
2018-06-21T04:57:45.643Z,25.50
2018-06-21T05:00:13.699Z,25.50
2018-06-21T05:02:41.791Z,25.60
2018-06-21T05:05:10.172Z,25.50
2018-06-21T05:07:38.232Z,25.50
2018-06-21T05:10:06.325Z,25.50
2018-06-21T05:12:34.386Z,25.50
2018-06-21T05:15:02.468Z,25.50
2018-06-21T05:17:30.532Z,25.50
2018-06-21T05:19:58.599Z,25.50
2018-06-21T05:22:26.755Z,25.50
2018-06-21T05:24:54.857Z,25.50
2018-06-21T05:27:22.882Z,25.60
2018-06-21T05:29:50.975Z,25.50
2018-06-21T05:32:19.103Z,25.50
2018-06-21T05:34:47.219Z,25.50
2018-06-21T05:37:15.275Z,25.50
2018-06-21T05:39:43.346Z,25.50
2018-06-21T05:42:11.421Z,25.50
2018-06-21T05:44:39.809Z,25.50
2018-06-21T05:47:08.127Z,25.50
2018-06-21T05:49:36.471Z,25.50
2018-06-21T05:52:04.574Z,25.50
2018-06-21T05:54:32.626Z,25.50
2018-06-21T05:57:00.715Z,25.50
2018-06-21T05:59:28.786Z,25.50
2018-06-21T06:01:56.854Z,25.50
2018-06-21T06:04:24.919Z,25.50
2018-06-21T06:06:52.983Z,25.50
2018-06-21T06:09:21.054Z,25.50
2018-06-21T06:11:49.123Z,25.50
2018-06-21T06:14:17.199Z,25.50
2018-06-21T06:16:45.276Z,25.50
2018-06-21T06:19:13.347Z,25.50
2018-06-21T06:21:41.395Z,25.50
2018-06-21T06:24:09.926Z,25.50
2018-06-21T06:26:38.306Z,25.50
2018-06-21T06:29:06.415Z,25.50
2018-06-21T06:31:34.567Z,25.50
2018-06-21T06:34:02.675Z,25.50
2018-06-21T06:36:30.747Z,25.50
2018-06-21T06:39:16.090Z,25.50
2018-06-21T06:41:44.663Z,25.50
2018-06-21T06:44:12.742Z,25.50
2018-06-21T06:46:40.820Z,25.50
2018-06-21T06:49:09.080Z,25.50
2018-06-21T06:51:37.459Z,25.50
2018-06-21T06:54:05.555Z,25.50
2018-06-21T06:56:33.629Z,25.50
2018-06-21T06:59:01.709Z,25.50
2018-06-21T07:01:30.259Z,25.50
2018-06-21T07:03:58.355Z,25.50
2018-06-21T07:06:26.447Z,25.50
2018-06-21T07:08:54.872Z,25.50
2018-06-21T07:11:22.951Z,25.40
2018-06-21T07:13:51.003Z,25.40
2018-06-21T07:16:19.138Z,25.40
2018-06-21T07:18:47.190Z,25.40
2018-06-21T07:21:15.267Z,25.50
2018-06-21T07:23:43.318Z,25.50
2018-06-21T07:26:11.395Z,25.50
2018-06-21T07:28:39.488Z,25.50
2018-06-21T07:31:07.616Z,25.50
2018-06-21T07:33:35.688Z,25.50
2018-06-21T07:36:03.759Z,25.50
2018-06-21T07:38:31.819Z,25.50
2018-06-21T07:40:59.922Z,25.50
2018-06-21T07:43:27.994Z,25.50
2018-06-21T07:45:56.082Z,25.50
2018-06-21T07:48:24.712Z,25.50
2018-06-21T07:50:52.998Z,25.50
2018-06-21T07:53:21.083Z,25.50
2018-06-21T07:55:49.239Z,25.50
2018-06-21T07:58:17.507Z,25.50
2018-06-21T08:00:45.903Z,25.50
2018-06-21T08:03:13.979Z,25.50
2018-06-21T08:05:42.080Z,25.50
2018-06-21T08:08:10.139Z,25.50
2018-06-21T08:10:38.206Z,25.50
2018-06-21T08:13:06.285Z,25.50
2018-06-21T08:15:34.380Z,25.60
2018-06-21T08:18:02.456Z,25.50
2018-06-21T08:20:30.532Z,25.50
2018-06-21T08:22:58.612Z,25.50
2018-06-21T08:25:26.679Z,25.60
2018-06-21T08:27:55.095Z,25.50
2018-06-21T08:30:23.163Z,25.50
2018-06-21T08:32:51.763Z,25.50
2018-06-21T08:35:19.827Z,25.50
2018-06-21T08:37:48.071Z,25.50
2018-06-21T08:40:16.159Z,25.50
2018-06-21T08:42:44.231Z,25.50
2018-06-21T08:45:12.539Z,25.50
2018-06-21T08:47:41.020Z,25.50
2018-06-21T08:50:09.084Z,25.60
2018-06-21T08:52:37.166Z,25.50
2018-06-21T08:55:05.240Z,25.50
2018-06-21T08:57:33.319Z,25.60
2018-06-21T09:00:01.387Z,25.50
2018-06-21T09:02:29.719Z,25.50
2018-06-21T09:04:57.804Z,25.50
2018-06-21T09:07:25.891Z,25.50
2018-06-21T09:09:54.191Z,25.50
2018-06-21T09:12:22.263Z,25.50
2018-06-21T09:14:50.340Z,25.60
2018-06-21T09:17:18.986Z,25.50
2018-06-21T09:19:47.152Z,25.60
2018-06-21T09:22:15.236Z,25.60
2018-06-21T09:24:43.307Z,25.60
2018-06-21T09:27:11.388Z,25.60
2018-06-21T09:29:39.459Z,25.60
2018-06-21T09:32:07.523Z,25.60
2018-06-21T09:34:35.595Z,25.60
2018-06-21T09:37:03.957Z,25.60
2018-06-21T09:39:37.447Z,25.60
2018-06-21T09:42:11.155Z,25.60
2018-06-21T09:44:43.476Z,25.60
2018-06-21T09:47:17.390Z,25.60
2018-06-21T09:49:45.455Z,25.60
2018-06-21T09:52:13.554Z,25.60
2018-06-21T09:54:41.623Z,25.60
2018-06-21T09:57:09.691Z,25.50
2018-06-21T09:59:37.775Z,25.60
2018-06-21T10:02:05.859Z,25.60
2018-06-21T10:04:33.946Z,25.60
2018-06-21T10:07:02.096Z,25.60
2018-06-21T10:09:30.120Z,25.60
2018-06-21T10:11:58.500Z,25.60
2018-06-21T10:14:26.575Z,25.60
2018-06-21T10:16:54.666Z,25.60
2018-06-21T10:19:22.743Z,25.60
2018-06-21T10:21:50.811Z,25.60
2018-06-21T10:24:18.902Z,25.60
2018-06-21T10:26:46.995Z,25.60
2018-06-21T10:29:15.343Z,25.50
2018-06-21T10:31:43.710Z,25.50
2018-06-21T10:34:11.790Z,25.60
2018-06-21T10:36:39.855Z,25.50
2018-06-21T10:39:09.419Z,25.60
2018-06-21T10:41:37.485Z,25.60
2018-06-21T10:44:05.660Z,25.50
2018-06-21T10:46:33.932Z,25.60
2018-06-21T10:49:02.059Z,25.50
2018-06-21T10:51:30.079Z,25.50
2018-06-21T10:53:58.394Z,25.60
2018-06-21T10:56:26.467Z,25.60
2018-06-21T10:58:54.558Z,25.50
2018-06-21T11:01:22.639Z,25.50
2018-06-21T11:03:51.086Z,25.60
2018-06-21T11:06:19.267Z,25.50
2018-06-21T11:08:47.393Z,25.50
2018-06-21T11:11:15.407Z,25.50
2018-06-21T11:13:43.475Z,25.50
2018-06-21T11:16:11.543Z,25.60
2018-06-21T11:18:39.631Z,25.60
2018-06-21T11:21:07.792Z,25.50
2018-06-21T11:23:35.876Z,25.60
2018-06-21T11:26:03.948Z,25.60
2018-06-21T11:28:32.035Z,25.60
2018-06-21T11:31:00.307Z,25.60
2018-06-21T11:33:28.389Z,25.60
2018-06-21T11:35:56.482Z,25.50
2018-06-21T11:38:24.611Z,25.50
2018-06-21T11:40:52.682Z,25.50
2018-06-21T11:43:21.041Z,25.60
2018-06-21T11:45:49.111Z,25.60
2018-06-21T11:48:17.211Z,25.60
2018-06-21T11:50:45.286Z,25.60
2018-06-21T11:53:13.354Z,25.60
2018-06-21T11:55:41.436Z,25.60
2018-06-21T11:58:10.076Z,25.60
2018-06-21T12:00:38.154Z,25.70
2018-06-21T12:03:06.407Z,25.70
2018-06-21T12:05:34.479Z,25.70
2018-06-21T12:08:02.539Z,25.70
2018-06-21T12:12:58.551Z,25.70
2018-06-21T12:18:01.212Z,25.80
2018-06-21T12:20:29.361Z,25.80
2018-06-21T12:22:57.410Z,25.80
2018-06-21T12:25:25.493Z,25.70
2018-06-21T12:27:53.568Z,25.70
2018-06-21T12:30:21.663Z,25.80
2018-06-21T12:32:56.481Z,25.80
2018-06-21T12:35:24.617Z,25.80
2018-06-21T12:37:52.764Z,25.80
2018-06-21T12:40:21.403Z,25.80
2018-06-21T12:42:49.491Z,25.80
2018-06-21T12:45:17.584Z,25.80
2018-06-21T12:47:45.676Z,25.80
2018-06-21T12:50:13.764Z,25.80
2018-06-21T12:52:42.148Z,25.80
2018-06-21T12:55:10.711Z,25.80
2018-06-21T12:57:39.111Z,25.80
2018-06-21T13:00:07.220Z,25.80
2018-06-21T13:02:35.836Z,25.80
2018-06-21T13:05:03.981Z,25.80
2018-06-21T13:07:32.095Z,25.80
2018-06-21T13:10:11.688Z,25.80
2018-06-21T13:12:51.967Z,25.80
2018-06-21T13:15:20.371Z,25.80
2018-06-21T13:17:49.006Z,25.80
2018-06-21T13:20:17.477Z,25.80
2018-06-21T13:22:46.059Z,25.80
2018-06-21T13:25:14.509Z,25.80
2018-06-21T13:27:43.022Z,25.80
2018-06-21T13:30:11.111Z,25.80
2018-06-21T13:32:39.223Z,25.90
2018-06-21T13:35:07.872Z,25.80
2018-06-21T13:37:35.962Z,25.80
2018-06-21T13:40:04.359Z,25.90
2018-06-21T13:42:32.428Z,25.90
2018-06-21T13:45:00.510Z,25.80
2018-06-21T13:47:28.623Z,25.80
2018-06-21T13:49:56.695Z,25.80
2018-06-21T13:52:24.762Z,25.80
2018-06-21T13:54:52.830Z,25.80
2018-06-21T13:57:21.200Z,25.80
2018-06-21T13:59:49.321Z,25.80
2018-06-21T14:02:17.338Z,25.80
2018-06-21T14:04:45.403Z,25.80
2018-06-21T14:07:13.496Z,25.80
2018-06-21T14:09:41.570Z,25.90
2018-06-21T14:12:09.642Z,25.90
2018-06-21T14:14:37.765Z,25.80
2018-06-21T14:17:06.004Z,25.80
2018-06-21T14:19:34.096Z,25.80
2018-06-21T14:22:02.735Z,25.80
2018-06-21T14:24:30.799Z,25.80
2018-06-21T14:26:58.859Z,25.90
2018-06-21T14:29:27.279Z,25.90
2018-06-21T14:31:55.660Z,25.90
2018-06-21T14:34:24.067Z,25.90
2018-06-21T14:36:52.167Z,25.80
2018-06-21T14:39:20.231Z,25.90
2018-06-21T14:41:48.311Z,26.00
2018-06-21T14:44:16.366Z,25.90
2018-06-21T14:46:44.440Z,25.90
2018-06-21T14:49:12.511Z,25.90
2018-06-21T14:51:40.644Z,25.90
2018-06-21T14:54:08.707Z,25.80
2018-06-21T14:56:36.800Z,25.80
2018-06-21T14:59:04.854Z,25.80
2018-06-21T15:01:32.955Z,25.80
2018-06-21T15:04:01.028Z,25.80
2018-06-21T15:06:29.104Z,25.80
2018-06-21T15:08:57.237Z,25.80
2018-06-21T15:11:25.284Z,25.80
2018-06-21T15:13:53.354Z,25.80
2018-06-21T15:16:22.730Z,25.80
2018-06-21T15:18:50.798Z,25.80
2018-06-21T15:21:19.075Z,25.80
2018-06-21T15:23:47.551Z,25.90
2018-06-21T15:26:15.641Z,25.80
2018-06-21T15:28:44.002Z,25.90
2018-06-21T15:31:12.063Z,25.90
2018-06-21T15:33:40.522Z,25.90
2018-06-21T15:36:08.723Z,25.90
2018-06-21T15:38:36.795Z,25.90
2018-06-21T15:41:04.851Z,25.90
2018-06-21T15:43:32.915Z,25.80
2018-06-21T15:46:00.979Z,25.80
2018-06-21T15:48:29.067Z,25.80
2018-06-21T15:50:57.123Z,25.80
2018-06-21T15:53:25.419Z,25.80
2018-06-21T15:55:53.480Z,25.80
2018-06-21T15:58:21.559Z,25.80
2018-06-21T16:00:49.618Z,25.80
2018-06-21T16:03:17.682Z,25.70
2018-06-21T16:05:45.762Z,25.70
2018-06-21T16:08:13.827Z,25.80
2018-06-21T16:10:42.235Z,25.80
2018-06-21T16:13:10.302Z,25.70
2018-06-21T16:15:38.391Z,25.90
2018-06-21T16:18:06.481Z,26.00
2018-06-21T16:20:34.556Z,26.00
2018-06-21T16:23:02.636Z,26.10
2018-06-21T16:25:30.714Z,26.00
2018-06-21T16:27:58.803Z,26.00
2018-06-21T16:30:26.899Z,26.00
2018-06-21T16:32:54.970Z,25.90
2018-06-21T16:35:23.036Z,25.90
2018-06-21T16:37:51.115Z,25.90
2018-06-21T16:40:19.550Z,25.80
2018-06-21T16:42:47.626Z,25.90
2018-06-21T16:45:15.895Z,25.90
2018-06-21T16:47:43.992Z,25.80
2018-06-21T16:50:12.083Z,25.80
2018-06-21T16:52:40.171Z,25.80
2018-06-21T16:55:08.238Z,25.80
2018-06-21T16:57:36.306Z,25.80
2018-06-21T17:00:05.242Z,25.80
2018-06-21T17:02:33.315Z,25.80
2018-06-21T17:05:01.388Z,25.80
2018-06-21T17:07:29.455Z,25.80
2018-06-21T17:09:57.751Z,25.70
2018-06-21T17:12:25.844Z,25.80
2018-06-21T17:14:54.239Z,25.80
2018-06-21T17:17:22.307Z,25.80
2018-06-21T17:19:50.387Z,25.80
2018-06-21T17:22:18.430Z,25.80
2018-06-21T17:24:46.730Z,25.80
2018-06-21T17:27:14.813Z,25.80
2018-06-21T17:29:42.903Z,25.80
2018-06-21T17:32:11.040Z,25.70
2018-06-21T17:34:39.111Z,25.80
2018-06-21T17:37:07.179Z,25.70
2018-06-21T17:39:35.504Z,25.80
2018-06-21T17:42:03.562Z,25.70
2018-06-21T17:44:31.639Z,25.80
2018-06-21T17:46:59.850Z,25.80
2018-06-21T17:49:28.195Z,25.80
2018-06-21T17:54:24.431Z,25.80
2018-06-21T17:56:52.514Z,25.80
2018-06-21T17:59:20.583Z,25.70
2018-06-21T18:01:48.694Z,25.70
2018-06-21T18:04:16.776Z,25.70
2018-06-21T18:06:44.834Z,25.70
2018-06-21T18:09:12.906Z,25.60
2018-06-21T18:11:40.979Z,25.60
2018-06-21T18:14:09.060Z,25.70
2018-06-21T18:16:37.135Z,25.70
2018-06-21T18:19:05.238Z,25.70
2018-06-21T18:21:33.316Z,25.70
2018-06-21T18:24:01.416Z,25.70
2018-06-21T18:26:29.491Z,25.70
2018-06-21T18:31:25.518Z,25.70
2018-06-21T18:33:54.850Z,25.70
2018-06-21T18:36:23.071Z,25.70
2018-06-21T18:38:51.158Z,25.70
2018-06-21T18:41:19.216Z,25.70
2018-06-21T18:43:47.311Z,25.80
2018-06-21T18:46:15.381Z,25.80
2018-06-21T18:48:43.455Z,25.70
2018-06-21T18:51:11.526Z,25.80
2018-06-21T18:53:39.601Z,25.70
2018-06-21T18:56:07.665Z,25.70
2018-06-21T18:58:35.722Z,25.80
2018-06-21T19:01:04.023Z,25.70
2018-06-21T19:03:32.128Z,25.70
2018-06-21T19:06:00.476Z,25.70
2018-06-21T19:09:32.059Z,25.70
2018-06-21T19:12:03.332Z,25.80
2018-06-21T19:14:31.451Z,25.70
2018-06-21T19:16:59.519Z,25.70
2018-06-21T19:19:27.639Z,25.70
2018-06-21T19:21:56.029Z,25.70
2018-06-21T19:24:24.098Z,25.70
2018-06-21T19:26:52.191Z,25.70
2018-06-21T19:29:20.259Z,25.70
2018-06-21T19:31:48.331Z,25.70
2018-06-21T19:41:40.695Z,25.70
2018-06-21T19:44:09.987Z,25.70
2018-06-21T19:46:38.367Z,25.70
2018-06-21T19:49:06.540Z,25.70
2018-06-21T19:51:34.935Z,25.70
2018-06-21T19:56:31.535Z,25.70
2018-06-21T19:58:59.671Z,25.70
2018-06-21T20:01:27.756Z,25.70
2018-06-21T20:03:56.219Z,25.70
2018-06-21T20:06:24.301Z,25.70
2018-06-21T20:08:52.362Z,25.70
2018-06-21T20:11:25.987Z,25.70
2018-06-21T20:13:54.059Z,25.70
2018-06-21T20:16:22.170Z,25.60
2018-06-21T20:18:50.246Z,25.70
2018-06-21T20:21:19.444Z,25.70
2018-06-21T20:23:48.842Z,25.70
2018-06-21T20:26:17.670Z,25.70
2018-06-21T20:28:45.738Z,25.70
2018-06-21T20:31:16.336Z,25.60
2018-06-21T20:33:45.523Z,25.60
2018-06-21T20:36:14.432Z,25.60
2018-06-21T20:38:42.678Z,25.60
2018-06-21T20:41:11.467Z,25.60
2018-06-21T20:43:39.598Z,25.60
2018-06-21T20:46:07.683Z,25.60
2018-06-21T20:48:35.751Z,25.60
2018-06-21T20:51:03.811Z,25.60
2018-06-21T20:53:31.883Z,25.60
2018-06-21T20:55:59.955Z,25.50
2018-06-21T20:58:28.029Z,25.50
2018-06-21T21:00:56.192Z,25.60
2018-06-21T21:03:24.248Z,25.50
2018-06-21T21:05:52.323Z,25.50
2018-06-21T21:08:20.671Z,25.50
2018-06-21T21:10:48.751Z,25.50
2018-06-21T21:13:16.810Z,25.50
2018-06-21T21:15:44.934Z,25.50
2018-06-21T21:18:12.987Z,25.50
2018-06-21T21:20:41.067Z,25.50
2018-06-21T21:23:09.172Z,25.50
2018-06-21T21:25:37.225Z,25.50
2018-06-21T21:28:05.351Z,25.50
2018-06-21T21:30:33.448Z,25.50
2018-06-21T21:33:01.516Z,25.50
2018-06-21T21:35:29.586Z,25.50
2018-06-21T21:37:57.685Z,25.50
2018-06-21T21:40:25.755Z,25.50
2018-06-21T21:42:53.883Z,25.50
2018-06-21T21:45:21.951Z,25.50
2018-06-21T21:47:50.026Z,25.50
2018-06-21T21:50:18.091Z,25.50
2018-06-21T21:52:46.163Z,25.50
2018-06-21T21:55:14.243Z,25.50
2018-06-21T21:57:42.305Z,25.50
2018-06-21T22:00:56.130Z,25.40
2018-06-21T22:03:24.212Z,25.50
2018-06-21T22:05:52.287Z,25.50
2018-06-21T22:08:20.359Z,25.50
2018-06-21T22:10:48.694Z,25.40
2018-06-21T22:13:17.028Z,25.40
2018-06-21T22:15:45.259Z,25.50
2018-06-21T22:18:13.326Z,25.40
2018-06-21T22:20:41.740Z,25.40
2018-06-21T22:23:09.871Z,25.50
2018-06-21T22:25:37.946Z,25.40
2018-06-21T22:28:06.727Z,25.40
2018-06-21T22:30:34.799Z,25.40
2018-06-21T22:33:02.859Z,25.40
2018-06-21T22:35:30.942Z,25.40
2018-06-21T22:37:59.015Z,25.40
2018-06-21T22:40:27.099Z,25.40
2018-06-21T22:42:55.169Z,25.40
2018-06-21T22:45:23.235Z,25.40
2018-06-21T22:47:51.290Z,25.40
2018-06-21T22:50:19.355Z,25.40
2018-06-21T22:52:47.423Z,25.40
2018-06-21T22:55:15.499Z,25.40
2018-06-21T22:57:43.778Z,25.40
2018-06-21T23:00:11.851Z,25.40
2018-06-21T23:02:39.909Z,25.40
2018-06-21T23:05:08.021Z,25.30
2018-06-21T23:10:04.020Z,25.40
2018-06-21T23:12:32.099Z,25.40
2018-06-21T23:15:00.192Z,25.40
2018-06-21T23:17:28.266Z,25.30
2018-06-21T23:22:24.270Z,25.30
2018-06-21T23:24:52.340Z,25.40
2018-06-21T23:27:20.431Z,25.30
2018-06-21T23:29:48.850Z,25.40
2018-06-21T23:32:17.236Z,25.30
2018-06-21T23:34:45.335Z,25.30
2018-06-21T23:37:13.402Z,25.30
2018-06-21T23:39:41.466Z,25.30
2018-06-21T23:42:09.631Z,25.30
2018-06-21T23:44:37.710Z,25.30
2018-06-21T23:47:05.795Z,25.30
2018-06-21T23:49:33.875Z,25.30
2018-06-21T23:52:01.975Z,25.30
2018-06-21T23:54:30.025Z,25.30
2018-06-21T23:56:58.129Z,25.30
2018-06-21T23:59:26.187Z,25.30
